createdAt,value
2023-02-24T00:01:40.832Z,46.97
2023-02-24T00:04:10.104Z,42.40
2023-02-24T00:06:38.830Z,37.33
2023-02-24T00:09:11.275Z,41.37
2023-02-24T00:11:40.623Z,40.70
2023-02-24T00:14:09.493Z,40.17
2023-02-24T00:16:40.554Z,41.60
2023-02-24T00:19:07.886Z,39.60
2023-02-24T00:21:35.912Z,36.83
2023-02-24T00:24:03.576Z,40.77
2023-02-24T00:26:30.924Z,38.47
2023-02-24T00:29:00.179Z,40.67
2023-02-24T00:31:31.136Z,38.93
2023-02-24T00:34:02.208Z,46.13
2023-02-24T00:36:30.799Z,42.40
2023-02-24T00:38:59.163Z,46.33
2023-02-24T00:41:29.520Z,45.73
2023-02-24T00:44:06.108Z,42.43
2023-02-24T00:46:40.658Z,43.43
2023-02-24T00:49:10.601Z,43.20
2023-02-24T00:51:39.023Z,37.93
2023-02-24T00:54:06.223Z,42.90
2023-02-24T00:56:33.449Z,43.70
2023-02-24T00:59:00.980Z,38.27
2023-02-24T01:01:31.372Z,41.90
2023-02-24T01:04:00.093Z,39.37
2023-02-24T01:06:29.383Z,41.27
2023-02-24T01:08:57.322Z,37.43
2023-02-24T01:11:45.279Z,42.63
2023-02-24T01:14:13.992Z,41.70
2023-02-24T01:16:41.614Z,35.77
2023-02-24T01:19:09.371Z,41.27
2023-02-24T01:21:36.547Z,36.43
2023-02-24T01:24:03.814Z,41.03
2023-02-24T01:26:31.080Z,38.43
2023-02-24T01:28:58.603Z,41.83
2023-02-24T01:31:26.391Z,39.80
2023-02-24T01:33:55.079Z,45.00
2023-02-24T01:36:25.497Z,42.53
2023-02-24T01:38:53.219Z,43.93
2023-02-24T01:41:22.746Z,40.47
2023-02-24T01:43:58.852Z,36.47
2023-02-24T01:46:33.242Z,41.97
2023-02-24T01:49:20.764Z,40.40
2023-02-24T01:51:49.772Z,43.03
2023-02-24T01:54:19.332Z,33.23
2023-02-24T01:56:48.652Z,39.23
2023-02-24T01:59:18.697Z,36.10
2023-02-24T02:01:46.200Z,32.87
2023-02-24T02:04:19.179Z,35.57
2023-02-24T02:06:47.586Z,31.17
2023-02-24T02:09:15.407Z,32.03
2023-02-24T02:11:49.284Z,30.13
2023-02-24T02:14:17.720Z,35.23
2023-02-24T02:16:57.070Z,33.97
2023-02-24T02:19:30.625Z,32.50
2023-02-24T02:22:00.786Z,36.70
2023-02-24T02:24:40.203Z,33.47
2023-02-24T02:27:26.165Z,34.13
2023-02-24T02:30:14.189Z,36.87
2023-02-24T02:33:01.844Z,34.77
2023-02-24T02:35:29.133Z,35.97
2023-02-24T02:38:03.197Z,33.33
2023-02-24T02:40:37.725Z,33.20
2023-02-24T02:43:14.166Z,33.27
2023-02-24T02:45:47.719Z,34.27
2023-02-24T02:48:20.767Z,31.03
2023-02-24T02:50:53.506Z,30.03
2023-02-24T02:53:26.096Z,28.37
2023-02-24T02:55:55.726Z,25.07
2023-02-24T02:58:26.292Z,32.40
2023-02-24T03:01:02.713Z,35.27
2023-02-24T03:03:31.711Z,29.47
2023-02-24T03:06:03.973Z,27.77
2023-02-24T03:08:34.407Z,29.57
2023-02-24T03:11:05.216Z,28.60
2023-02-24T03:13:34.855Z,28.70
2023-02-24T03:16:02.801Z,27.53
2023-02-24T03:18:32.367Z,32.57
2023-02-24T03:21:23.084Z,30.57
2023-02-24T03:23:51.420Z,27.30
2023-02-24T03:26:28.206Z,28.23
2023-02-24T03:29:04.937Z,26.93
2023-02-24T03:31:37.943Z,29.17
2023-02-24T03:34:29.217Z,29.20
2023-02-24T03:36:57.241Z,28.60
2023-02-24T03:39:25.069Z,33.17
2023-02-24T03:41:58.585Z,34.80
2023-02-24T03:44:25.767Z,32.37
2023-02-24T03:46:55.960Z,33.73
2023-02-24T03:49:25.273Z,33.87
2023-02-24T03:51:56.994Z,32.67
2023-02-24T03:54:42.991Z,33.43
2023-02-24T03:57:54.755Z,35.47
2023-02-24T04:00:34.313Z,36.97
2023-02-24T04:03:07.700Z,36.60
2023-02-24T04:05:38.865Z,36.60
2023-02-24T04:08:08.340Z,40.20
2023-02-24T04:10:42.036Z,38.43
2023-02-24T04:13:12.520Z,42.13
2023-02-24T04:15:44.144Z,37.57
2023-02-24T04:18:22.895Z,38.10
2023-02-24T04:20:53.182Z,37.70
2023-02-24T04:23:26.825Z,37.83
2023-02-24T04:25:57.577Z,41.50
2023-02-24T04:28:25.856Z,39.30
2023-02-24T04:30:55.485Z,35.97
2023-02-24T04:33:22.772Z,34.33
2023-02-24T04:35:51.034Z,35.67
2023-02-24T04:38:18.890Z,36.93
2023-02-24T04:40:46.398Z,33.43
2023-02-24T04:43:14.001Z,38.97
2023-02-24T04:45:41.183Z,39.60
2023-02-24T04:48:12.919Z,40.90
2023-02-24T04:50:41.400Z,39.43
2023-02-24T04:53:10.242Z,35.87
2023-02-24T04:55:42.377Z,36.87
2023-02-24T04:58:12.920Z,37.83
2023-02-24T05:00:41.825Z,32.10
2023-02-24T05:03:11.889Z,36.87
2023-02-24T05:05:39.425Z,40.00
2023-02-24T05:08:07.934Z,37.60
2023-02-24T05:10:43.862Z,41.93
2023-02-24T05:13:19.335Z,38.03
2023-02-24T05:15:48.064Z,32.87
2023-02-24T05:18:17.318Z,33.03
2023-02-24T05:21:04.144Z,36.97
2023-02-24T05:23:35.873Z,37.83
2023-02-24T05:26:08.969Z,29.23
2023-02-24T05:28:40.739Z,32.73
2023-02-24T05:31:15.201Z,31.03
2023-02-24T05:33:43.264Z,40.03
2023-02-24T05:36:12.260Z,37.37
2023-02-24T05:38:39.776Z,37.13
2023-02-24T05:41:17.680Z,30.47
2023-02-24T05:43:52.588Z,40.33
2023-02-24T05:46:28.282Z,31.50
2023-02-24T05:49:09.280Z,37.97
2023-02-24T05:51:38.893Z,31.70
2023-02-24T05:54:07.208Z,33.40
2023-02-24T05:56:35.154Z,36.87
2023-02-24T05:59:03.436Z,33.90
2023-02-24T06:01:31.780Z,35.23
2023-02-24T06:04:06.290Z,32.80
2023-02-24T06:06:35.307Z,34.23
2023-02-24T06:09:10.805Z,30.80
2023-02-24T06:11:38.819Z,32.77
2023-02-24T06:14:07.142Z,29.07
2023-02-24T06:16:35.614Z,32.83
2023-02-24T06:19:03.339Z,31.30
2023-02-24T06:21:30.593Z,30.43
2023-02-24T06:23:58.505Z,24.10
2023-02-24T06:26:29.926Z,30.43
2023-02-24T06:29:01.094Z,27.57
2023-02-24T06:31:28.293Z,30.27
2023-02-24T06:33:56.163Z,30.93
2023-02-24T06:36:23.434Z,18.80
2023-02-24T06:38:52.652Z,11.10
2023-02-24T06:41:20.375Z,9.37
2023-02-24T06:43:48.373Z,7.20
2023-02-24T06:46:16.763Z,7.53
2023-02-24T06:48:44.240Z,8.10
2023-02-24T06:51:15.987Z,7.47
2023-02-24T06:53:44.248Z,5.90
2023-02-24T06:56:15.517Z,5.87
2023-02-24T06:58:46.360Z,6.80
2023-02-24T07:01:14.825Z,8.53
2023-02-24T07:03:47.941Z,6.47
2023-02-24T07:06:21.040Z,5.50
2023-02-24T07:08:48.713Z,6.40
2023-02-24T07:11:19.395Z,7.87
2023-02-24T07:13:48.051Z,6.20
2023-02-24T07:16:16.441Z,4.90
2023-02-24T07:18:44.324Z,7.17
2023-02-24T07:21:11.946Z,7.30
2023-02-24T07:23:42.324Z,7.37
2023-02-24T07:26:18.532Z,10.97
2023-02-24T07:28:48.191Z,6.70
2023-02-24T07:31:17.347Z,7.57
2023-02-24T07:33:45.516Z,6.87
2023-02-24T07:36:18.262Z,18.10
2023-02-24T07:38:46.227Z,11.40
2023-02-24T07:41:19.547Z,11.37
2023-02-24T07:43:47.075Z,13.93
2023-02-24T07:46:16.850Z,15.90
2023-02-24T07:48:44.580Z,12.33
2023-02-24T07:51:15.068Z,12.73
2023-02-24T07:53:42.628Z,13.37
2023-02-24T07:56:17.809Z,7.70
2023-02-24T07:58:45.562Z,9.77
2023-02-24T08:01:28.057Z,12.03
2023-02-24T08:03:56.829Z,6.33
2023-02-24T08:06:27.494Z,11.03
2023-02-24T08:08:58.880Z,12.00
2023-02-24T08:11:42.857Z,16.90
2023-02-24T08:14:13.853Z,14.70
2023-02-24T08:16:42.411Z,18.07
2023-02-24T08:19:13.284Z,17.23
2023-02-24T08:21:47.719Z,10.00
2023-02-24T08:24:19.280Z,11.33
2023-02-24T08:27:05.343Z,11.17
2023-02-24T08:29:40.254Z,14.17
2023-02-24T08:32:11.772Z,16.00
2023-02-24T08:34:39.134Z,7.93
2023-02-24T08:37:06.727Z,14.40
2023-02-24T08:39:36.502Z,15.37
2023-02-24T08:42:03.731Z,13.07
2023-02-24T08:44:31.242Z,16.33
2023-02-24T08:47:00.769Z,10.00
2023-02-24T08:49:28.398Z,15.43
2023-02-24T08:51:55.878Z,10.83
2023-02-24T08:54:27.571Z,15.50
2023-02-24T08:56:56.880Z,12.93
2023-02-24T08:59:47.407Z,13.23
2023-02-24T09:02:19.441Z,11.63
2023-02-24T09:04:47.606Z,11.30
2023-02-24T09:07:16.430Z,23.47
2023-02-24T09:09:43.813Z,9.23
2023-02-24T09:12:22.018Z,14.03
2023-02-24T09:14:50.344Z,17.60
2023-02-24T09:17:20.781Z,8.53
2023-02-24T09:19:52.311Z,18.97
2023-02-24T09:22:33.403Z,16.83
2023-02-24T09:25:18.045Z,13.37
2023-02-24T09:27:48.146Z,16.77
2023-02-24T09:30:35.449Z,17.20
2023-02-24T09:33:09.047Z,16.13
2023-02-24T09:35:37.072Z,18.73
2023-02-24T09:38:05.614Z,15.10
2023-02-24T09:40:48.962Z,12.60
2023-02-24T09:43:21.795Z,12.20
2023-02-24T09:45:58.367Z,10.67
2023-02-24T09:48:30.861Z,13.97
2023-02-24T09:51:05.164Z,15.23
2023-02-24T09:53:41.202Z,14.83
2023-02-24T09:56:37.332Z,16.03
2023-02-24T09:59:26.450Z,12.80
2023-02-24T10:02:02.288Z,14.40
2023-02-24T10:04:36.359Z,10.20
2023-02-24T10:07:06.054Z,10.03
2023-02-24T10:09:35.358Z,19.77
2023-02-24T10:12:06.783Z,13.60
2023-02-24T10:14:44.012Z,9.10
2023-02-24T10:17:23.477Z,15.47
2023-02-24T10:20:13.965Z,16.43
2023-02-24T10:22:51.039Z,8.50
2023-02-24T10:25:21.621Z,10.17
2023-02-24T10:27:53.089Z,8.37
2023-02-24T10:30:20.294Z,7.83
2023-02-24T10:32:53.332Z,9.20
2023-02-24T10:35:25.961Z,8.70
2023-02-24T10:37:53.747Z,8.03
2023-02-24T10:40:27.466Z,12.03
2023-02-24T10:43:17.879Z,15.43
2023-02-24T10:45:46.238Z,8.10
2023-02-24T10:48:40.377Z,9.83
2023-02-24T10:51:32.120Z,11.07
2023-02-24T10:54:22.940Z,9.67
2023-02-24T10:57:11.751Z,11.90
2023-02-24T10:59:58.595Z,13.03
2023-02-24T11:02:32.649Z,16.73
2023-02-24T11:05:02.665Z,11.67
2023-02-24T11:08:08.473Z,11.53
2023-02-24T11:10:52.969Z,9.97
2023-02-24T11:13:39.564Z,10.00
2023-02-24T11:16:27.913Z,13.27
2023-02-24T11:18:55.534Z,10.40
2023-02-24T11:21:25.064Z,11.70
2023-02-24T11:23:54.787Z,12.73
2023-02-24T11:26:27.417Z,14.17
2023-02-24T11:29:06.598Z,23.97
2023-02-24T11:31:53.105Z,14.63
2023-02-24T11:34:28.988Z,20.07
2023-02-24T11:37:09.165Z,10.00
2023-02-24T11:39:48.607Z,10.90
2023-02-24T11:42:17.368Z,11.07
2023-02-24T11:44:56.695Z,11.33
2023-02-24T11:47:28.687Z,17.97
2023-02-24T11:50:08.944Z,9.53
2023-02-24T11:52:39.224Z,7.00
2023-02-24T11:55:14.763Z,13.13
2023-02-24T11:57:45.595Z,8.53
2023-02-24T12:00:20.442Z,9.17
2023-02-24T12:02:54.014Z,7.70
2023-02-24T12:05:26.710Z,11.97
2023-02-24T12:08:13.483Z,7.40
2023-02-24T12:10:47.581Z,13.07
2023-02-24T12:13:24.434Z,11.23
2023-02-24T12:16:00.702Z,11.03
2023-02-24T12:18:48.255Z,6.90
2023-02-24T12:21:18.322Z,9.17
2023-02-24T12:23:46.495Z,12.87
2023-02-24T12:26:22.099Z,11.70
2023-02-24T12:28:58.127Z,15.60
2023-02-24T12:31:29.362Z,8.60
2023-02-24T12:34:04.052Z,8.60
2023-02-24T12:36:48.386Z,10.77
2023-02-24T12:39:18.305Z,6.50
2023-02-24T12:42:05.831Z,12.40
2023-02-24T12:44:50.981Z,9.03
2023-02-24T12:47:23.476Z,10.50
2023-02-24T12:50:09.068Z,7.80
2023-02-24T12:52:42.144Z,9.93
2023-02-24T12:55:17.364Z,8.93
2023-02-24T12:57:53.466Z,6.73
2023-02-24T13:00:26.836Z,8.63
2023-02-24T13:03:00.296Z,10.40
2023-02-24T13:05:27.613Z,10.80
2023-02-24T13:07:54.839Z,11.40
2023-02-24T13:10:41.426Z,7.43
2023-02-24T13:13:08.750Z,14.33
2023-02-24T13:15:36.008Z,8.23
2023-02-24T13:18:03.285Z,13.17
2023-02-24T13:20:32.783Z,6.70
2023-02-24T13:23:00.549Z,10.60
2023-02-24T13:25:32.444Z,7.23
2023-02-24T13:28:01.353Z,7.13
2023-02-24T13:30:34.467Z,7.47
2023-02-24T13:33:01.680Z,11.43
2023-02-24T13:35:28.878Z,10.87
2023-02-24T13:37:56.109Z,8.47
2023-02-24T13:40:28.217Z,8.07
2023-02-24T13:42:59.066Z,10.97
2023-02-24T13:45:30.705Z,11.10
2023-02-24T13:48:02.014Z,7.80
2023-02-24T13:50:33.329Z,13.43
2023-02-24T13:53:11.927Z,13.40
2023-02-24T13:55:48.133Z,9.63
2023-02-24T13:58:46.013Z,7.00
2023-02-24T14:01:14.883Z,12.40
2023-02-24T14:03:44.614Z,7.63
2023-02-24T14:06:26.088Z,9.43
2023-02-24T14:08:58.209Z,10.27
2023-02-24T14:11:26.962Z,8.47
2023-02-24T14:13:55.078Z,10.07
2023-02-24T14:16:24.357Z,6.43
2023-02-24T14:18:56.437Z,8.00
2023-02-24T14:21:25.158Z,10.17
2023-02-24T14:23:59.730Z,6.60
2023-02-24T14:26:27.509Z,7.40
2023-02-24T14:29:00.503Z,14.67
2023-02-24T14:31:28.753Z,6.50
2023-02-24T14:34:00.364Z,8.93
2023-02-24T14:36:30.546Z,13.00
2023-02-24T14:39:02.483Z,10.87
2023-02-24T14:41:29.807Z,10.07
2023-02-24T14:43:57.215Z,12.27
2023-02-24T14:46:25.157Z,12.53
2023-02-24T14:48:54.337Z,7.63
2023-02-24T14:51:24.551Z,11.03
2023-02-24T14:54:02.224Z,14.27
2023-02-24T14:56:31.396Z,7.47
2023-02-24T14:59:02.172Z,8.50
2023-02-24T15:01:40.234Z,14.40
2023-02-24T15:04:14.532Z,8.50
2023-02-24T15:06:43.503Z,9.20
2023-02-24T15:09:16.595Z,8.40
2023-02-24T15:11:44.031Z,10.90
2023-02-24T15:14:25.429Z,8.77
2023-02-24T15:16:55.156Z,10.53
2023-02-24T15:19:37.401Z,11.33
2023-02-24T15:22:41.922Z,13.03
2023-02-24T15:25:11.910Z,13.57
2023-02-24T15:27:50.211Z,6.47
2023-02-24T15:30:29.127Z,8.83
2023-02-24T15:33:04.116Z,8.33
2023-02-24T15:35:33.259Z,11.47
2023-02-24T15:38:01.033Z,14.17
2023-02-24T15:40:29.577Z,11.83
2023-02-24T15:42:58.214Z,19.50
2023-02-24T15:45:25.635Z,16.00
2023-02-24T15:47:54.543Z,12.87
2023-02-24T15:50:22.462Z,8.63
2023-02-24T15:52:49.934Z,16.97
2023-02-24T15:55:18.885Z,12.43
2023-02-24T15:57:46.986Z,10.77
2023-02-24T16:00:16.060Z,11.23
2023-02-24T16:02:43.773Z,9.60
2023-02-24T16:05:14.235Z,12.83
2023-02-24T16:07:41.599Z,12.80
2023-02-24T16:10:15.360Z,11.63
2023-02-24T16:12:46.729Z,13.83
2023-02-24T16:15:19.367Z,12.43
2023-02-24T16:17:46.748Z,13.97
2023-02-24T16:20:19.019Z,13.83
2023-02-24T16:22:46.246Z,13.57
2023-02-24T16:25:17.334Z,11.57
2023-02-24T16:27:44.655Z,15.33
2023-02-24T16:30:16.339Z,15.77
2023-02-24T16:32:43.707Z,11.07
2023-02-24T16:35:11.370Z,11.83
2023-02-24T16:37:38.831Z,10.80
2023-02-24T16:40:12.620Z,11.10
2023-02-24T16:42:40.216Z,11.10
2023-02-24T16:45:07.702Z,19.00
2023-02-24T16:47:34.990Z,16.10
2023-02-24T16:50:02.216Z,16.63
2023-02-24T16:52:29.466Z,13.67
2023-02-24T16:54:56.659Z,14.60
2023-02-24T16:57:25.729Z,14.13
2023-02-24T16:59:53.063Z,17.47
2023-02-24T17:02:25.872Z,23.03
2023-02-24T17:04:53.310Z,17.57
2023-02-24T17:07:21.352Z,16.77
2023-02-24T17:09:48.744Z,18.37
2023-02-24T17:12:18.539Z,15.13
2023-02-24T17:14:46.734Z,18.77
2023-02-24T17:17:14.144Z,14.83
2023-02-24T17:19:41.388Z,16.60
2023-02-24T17:22:08.604Z,16.53
2023-02-24T17:24:35.861Z,13.73
2023-02-24T17:27:04.341Z,13.27
2023-02-24T17:29:31.591Z,15.27
2023-02-24T17:31:59.107Z,15.23
2023-02-24T17:34:26.909Z,18.43
2023-02-24T17:36:54.066Z,12.37
2023-02-24T17:39:21.304Z,23.47
2023-02-24T17:41:48.684Z,18.30
2023-02-24T17:44:15.923Z,22.40
2023-02-24T17:46:43.187Z,21.00
2023-02-24T17:49:10.441Z,28.47
2023-02-24T17:51:37.689Z,11.83
2023-02-24T17:54:04.930Z,11.27
2023-02-24T17:56:32.087Z,13.63
2023-02-24T17:59:01.046Z,10.17
2023-02-24T18:01:28.360Z,10.80
2023-02-24T18:03:58.811Z,10.87
2023-02-24T18:06:27.245Z,8.87
2023-02-24T18:08:55.077Z,11.63
2023-02-24T18:11:22.240Z,11.83
2023-02-24T18:13:55.137Z,15.03
2023-02-24T18:16:22.856Z,8.93
2023-02-24T18:18:50.556Z,10.27
2023-02-24T18:21:17.777Z,11.57
2023-02-24T18:23:45.176Z,9.53
2023-02-24T18:26:13.050Z,12.83
2023-02-24T18:28:40.844Z,10.13
2023-02-24T18:31:26.716Z,14.37
2023-02-24T18:33:54.593Z,12.20
2023-02-24T18:36:22.132Z,9.30
2023-02-24T18:38:49.481Z,9.53
2023-02-24T18:41:18.458Z,16.83
2023-02-24T18:43:48.243Z,10.60
2023-02-24T18:46:16.250Z,10.20
2023-02-24T18:48:46.772Z,10.07
2023-02-24T18:51:14.950Z,13.37
2023-02-24T18:53:42.168Z,12.03
2023-02-24T18:56:10.901Z,11.97
2023-02-24T18:58:39.365Z,11.77
2023-02-24T19:01:13.256Z,13.07
2023-02-24T19:03:41.070Z,14.53
2023-02-24T19:06:08.393Z,16.67
2023-02-24T19:08:35.628Z,10.73
2023-02-24T19:11:13.880Z,13.00
2023-02-24T19:13:41.349Z,15.00
2023-02-24T19:16:08.878Z,15.80
2023-02-24T19:18:36.341Z,10.53
2023-02-24T19:21:06.214Z,10.03
2023-02-24T19:23:33.705Z,14.17
2023-02-24T19:26:00.955Z,12.07
2023-02-24T19:28:28.260Z,12.90
2023-02-24T19:30:55.604Z,10.40
2023-02-24T19:33:23.040Z,8.80
2023-02-24T19:35:52.908Z,10.17
2023-02-24T19:38:22.162Z,10.07
2023-02-24T19:40:49.355Z,10.27
2023-02-24T19:43:16.600Z,10.70
2023-02-24T19:45:43.969Z,10.37
2023-02-24T19:48:11.494Z,8.63
2023-02-24T19:50:42.196Z,7.30
2023-02-24T19:53:09.765Z,9.67
2023-02-24T19:55:36.941Z,17.07
2023-02-24T19:58:04.230Z,10.03
2023-02-24T20:00:31.437Z,8.43
2023-02-24T20:02:58.631Z,8.73
2023-02-24T20:05:25.877Z,12.97
2023-02-24T20:07:53.632Z,10.80
2023-02-24T20:10:20.876Z,15.63
2023-02-24T20:12:48.195Z,15.37
2023-02-24T20:15:15.539Z,13.90
2023-02-24T20:17:42.740Z,11.20
2023-02-24T20:20:10.644Z,10.13
2023-02-24T20:22:38.728Z,12.57
2023-02-24T20:25:06.182Z,12.30
2023-02-24T20:27:33.508Z,12.50
2023-02-24T20:30:01.999Z,13.00
2023-02-24T20:32:29.465Z,14.93
2023-02-24T20:34:56.868Z,16.27
2023-02-24T20:37:24.194Z,12.93
2023-02-24T20:39:52.543Z,10.83
2023-02-24T20:42:19.867Z,10.70
2023-02-24T20:44:47.096Z,10.27
2023-02-24T20:47:14.354Z,11.17
2023-02-24T20:49:41.739Z,15.33
2023-02-24T20:52:09.108Z,11.43
2023-02-24T20:54:36.324Z,14.40
2023-02-24T20:57:03.561Z,9.30
2023-02-24T20:59:30.855Z,8.57
2023-02-24T21:01:58.118Z,10.70
2023-02-24T21:04:25.341Z,12.07
2023-02-24T21:06:53.063Z,7.43
2023-02-24T21:09:20.925Z,7.30
2023-02-24T21:11:48.200Z,8.53
2023-02-24T21:14:16.963Z,7.83
2023-02-24T21:16:46.153Z,6.43
2023-02-24T21:19:13.646Z,8.97
2023-02-24T21:21:40.806Z,11.03
2023-02-24T21:24:08.652Z,9.33
2023-02-24T21:26:35.879Z,8.83
2023-02-24T21:29:03.137Z,9.97
2023-02-24T21:31:30.465Z,8.67
2023-02-24T21:33:57.776Z,9.23
2023-02-24T21:36:26.134Z,8.87
2023-02-24T21:38:53.957Z,11.53
2023-02-24T21:41:21.409Z,11.17
2023-02-24T21:43:50.572Z,8.77
2023-02-24T21:46:18.123Z,9.47
2023-02-24T21:48:45.419Z,11.07
2023-02-24T21:51:13.730Z,10.40
2023-02-24T21:53:43.563Z,14.13
2023-02-24T21:56:11.175Z,13.77
2023-02-24T21:58:39.399Z,15.27
2023-02-24T22:01:10.955Z,13.10
2023-02-24T22:03:38.232Z,11.13
2023-02-24T22:06:05.666Z,12.90
2023-02-24T22:08:32.959Z,11.90
2023-02-24T22:11:01.000Z,11.53
2023-02-24T22:13:28.491Z,10.43
2023-02-24T22:15:58.386Z,9.10
2023-02-24T22:18:25.895Z,11.13
2023-02-24T22:20:53.133Z,10.33
2023-02-24T22:23:20.381Z,11.23
2023-02-24T22:25:47.579Z,12.53
2023-02-24T22:28:14.831Z,13.30
2023-02-24T22:30:42.176Z,14.20
2023-02-24T22:33:09.484Z,13.57
2023-02-24T22:35:36.669Z,15.37
2023-02-24T22:38:03.930Z,13.37
2023-02-24T22:40:31.133Z,13.13
2023-02-24T22:42:58.324Z,13.60
2023-02-24T22:45:25.523Z,13.40
2023-02-24T22:47:52.828Z,15.20
2023-02-24T22:50:20.124Z,17.13
2023-02-24T22:52:48.959Z,16.07
2023-02-24T22:55:18.182Z,20.00
2023-02-24T22:57:45.393Z,18.47
2023-02-24T23:00:20.109Z,15.90
2023-02-24T23:02:47.589Z,15.33
2023-02-24T23:05:15.228Z,15.43
2023-02-24T23:07:42.516Z,18.73
2023-02-24T23:10:10.328Z,13.23
2023-02-24T23:12:37.730Z,17.37
2023-02-24T23:15:05.165Z,16.97
2023-02-24T23:17:32.336Z,17.53
2023-02-24T23:19:59.555Z,15.80
2023-02-24T23:22:26.744Z,18.00
2023-02-24T23:24:53.962Z,18.10
2023-02-24T23:27:23.386Z,17.30
2023-02-24T23:29:50.884Z,18.97
2023-02-24T23:32:18.280Z,19.47
2023-02-24T23:34:45.843Z,19.50
2023-02-24T23:37:13.483Z,18.30
2023-02-24T23:39:40.720Z,20.67
2023-02-24T23:42:07.917Z,18.90
2023-02-24T23:44:38.027Z,18.23
2023-02-24T23:47:05.422Z,17.10
2023-02-24T23:49:47.312Z,17.50
2023-02-24T23:52:15.004Z,18.97
2023-02-24T23:54:42.208Z,18.33
2023-02-24T23:57:12.342Z,20.80
2023-02-24T23:59:39.840Z,19.13
